Las Vegas (LAS/KLAS)

Information

Location
Las Vegas, NV
Local Time
04:47 / 4:47 am
GMT Time
12:47 / 12:47 pm
Gates
Unassigned
No FAA reported delays
METAR KLAS 161156Z 17003KT 10SM OVC200 07/M02 A3006 RMK AO2 SLP179 T00671017 10094 20067 51005
TAF KLAS 161120Z 1612/1712 VRB06KT P6SM BKN190 FM161600 35009KT P6SM SCT190 FM161800 02011KT P6SM FEW190 FM170500 35008KT P6SM SKC FM170900 VRB05KT P6SM SKC
  • No charts available